sensor_id;sensor_type;location;lat;lon;timestamp;temperature;humidity
54938;DHT22;52756;52.826;6.214;2022-08-11T00:00:15;21.90;54.10
54938;DHT22;52756;52.826;6.214;2022-08-11T00:02:46;21.80;53.80
54938;DHT22;52756;52.826;6.214;2022-08-11T00:05:18;21.70;54.00
54938;DHT22;52756;52.826;6.214;2022-08-11T00:07:50;21.80;54.20
54938;DHT22;52756;52.826;6.214;2022-08-11T00:10:19;21.80;54.20
54938;DHT22;52756;52.826;6.214;2022-08-11T00:12:52;21.70;54.10
54938;DHT22;52756;52.826;6.214;2022-08-11T00:15:18;21.70;54.20
54938;DHT22;52756;52.826;6.214;2022-08-11T00:17:45;21.70;54.30
54938;DHT22;52756;52.826;6.214;2022-08-11T00:20:13;21.60;54.20
54938;DHT22;52756;52.826;6.214;2022-08-11T00:22:41;21.60;54.20
54938;DHT22;52756;52.826;6.214;2022-08-11T00:25:13;21.60;54.20
54938;DHT22;52756;52.826;6.214;2022-08-11T00:27:40;21.60;54.30
54938;DHT22;52756;52.826;6.214;2022-08-11T00:30:07;21.60;54.30
54938;DHT22;52756;52.826;6.214;2022-08-11T00:32:36;21.50;54.20
54938;DHT22;52756;52.826;6.214;2022-08-11T00:35:04;21.50;54.20
54938;DHT22;52756;52.826;6.214;2022-08-11T00:37:30;21.50;54.30
54938;DHT22;52756;52.826;6.214;2022-08-11T00:39:58;21.50;54.40
54938;DHT22;52756;52.826;6.214;2022-08-11T00:46:07;21.40;54.20
54938;DHT22;52756;52.826;6.214;2022-08-11T00:48:52;21.40;54.30
54938;DHT22;52756;52.826;6.214;2022-08-11T01:00:05;21.30;54.60
54938;DHT22;52756;52.826;6.214;2022-08-11T01:25:52;20.90;54.70
54938;DHT22;52756;52.826;6.214;2022-08-11T01:42:28;20.70;55.10
54938;DHT22;52756;52.826;6.214;2022-08-11T01:58:47;20.50;55.30
54938;DHT22;52756;52.826;6.214;2022-08-11T02:04:17;20.50;55.40
54938;DHT22;52756;52.826;6.214;2022-08-11T02:06:55;20.50;55.90
54938;DHT22;52756;52.826;6.214;2022-08-11T02:09:49;20.40;55.70
54938;DHT22;52756;52.826;6.214;2022-08-11T02:15:37;20.40;55.70
54938;DHT22;52756;52.826;6.214;2022-08-11T02:18:27;20.30;55.80
54938;DHT22;52756;52.826;6.214;2022-08-11T02:21:26;20.30;55.90
54938;DHT22;52756;52.826;6.214;2022-08-11T02:24:18;20.30;55.90
54938;DHT22;52756;52.826;6.214;2022-08-11T02:27:06;20.20;55.80
54938;DHT22;52756;52.826;6.214;2022-08-11T02:29:41;20.20;55.80
54938;DHT22;52756;52.826;6.214;2022-08-11T02:42:39;20.10;55.80
54938;DHT22;52756;52.826;6.214;2022-08-11T02:45:36;20.10;55.80
54938;DHT22;52756;52.826;6.214;2022-08-11T02:51:42;20.00;55.70
54938;DHT22;52756;52.826;6.214;2022-08-11T02:54:24;20.00;55.90
54938;DHT22;52756;52.826;6.214;2022-08-11T02:59:47;19.90;55.80
54938;DHT22;52756;52.826;6.214;2022-08-11T03:08:16;19.90;56.10
54938;DHT22;52756;52.826;6.214;2022-08-11T03:22:33;19.70;56.30
54938;DHT22;52756;52.826;6.214;2022-08-11T03:25:21;19.70;56.40
54938;DHT22;52756;52.826;6.214;2022-08-11T03:33:48;19.60;56.40
54938;DHT22;52756;52.826;6.214;2022-08-11T03:36:54;19.60;56.60
54938;DHT22;52756;52.826;6.214;2022-08-11T03:39:54;19.60;56.70
54938;DHT22;52756;52.826;6.214;2022-08-11T03:48:20;19.50;56.80
54938;DHT22;52756;52.826;6.214;2022-08-11T04:11:00;19.30;57.00
54938;DHT22;52756;52.826;6.214;2022-08-11T04:16:46;19.30;57.10
54938;DHT22;52756;52.826;6.214;2022-08-11T04:39:46;19.10;58.00
54938;DHT22;52756;52.826;6.214;2022-08-11T04:46:00;19.00;58.40
54938;DHT22;52756;52.826;6.214;2022-08-11T04:57:58;18.90;59.30
54938;DHT22;52756;52.826;6.214;2022-08-11T05:01:03;18.90;59.50
54938;DHT22;52756;52.826;6.214;2022-08-11T05:04:15;18.90;60.00
54938;DHT22;52756;52.826;6.214;2022-08-11T05:12:40;18.80;61.00
54938;DHT22;52756;52.826;6.214;2022-08-11T05:15:12;18.80;61.20
54938;DHT22;52756;52.826;6.214;2022-08-11T05:18:14;18.90;61.60
54938;DHT22;52756;52.826;6.214;2022-08-11T05:21:05;19.00;62.00
54938;DHT22;52756;52.826;6.214;2022-08-11T05:23:56;18.90;62.00
54938;DHT22;52756;52.826;6.214;2022-08-11T05:26:47;19.00;62.20
54938;DHT22;52756;52.826;6.214;2022-08-11T05:29:42;19.00;61.80
54938;DHT22;52756;52.826;6.214;2022-08-11T05:32:35;19.00;61.80
54938;DHT22;52756;52.826;6.214;2022-08-11T05:35:34;19.00;62.30
54938;DHT22;52756;52.826;6.214;2022-08-11T05:38:09;19.00;61.90
54938;DHT22;52756;52.826;6.214;2022-08-11T05:40:55;19.00;62.00
54938;DHT22;52756;52.826;6.214;2022-08-11T05:43:43;19.10;62.30
54938;DHT22;52756;52.826;6.214;2022-08-11T05:46:28;19.10;62.70
54938;DHT22;52756;52.826;6.214;2022-08-11T05:49:13;19.10;63.00
54938;DHT22;52756;52.826;6.214;2022-08-11T05:51:59;19.10;63.30
54938;DHT22;52756;52.826;6.214;2022-08-11T05:54:46;19.10;63.70
54938;DHT22;52756;52.826;6.214;2022-08-11T05:57:32;19.10;64.10
54938;DHT22;52756;52.826;6.214;2022-08-11T06:00:04;19.20;64.80
54938;DHT22;52756;52.826;6.214;2022-08-11T06:02:40;19.40;65.10
54938;DHT22;52756;52.826;6.214;2022-08-11T06:05:07;19.80;65.00
54938;DHT22;52756;52.826;6.214;2022-08-11T06:07:33;20.20;64.20
54938;DHT22;52756;52.826;6.214;2022-08-11T06:09:59;20.70;63.50
54938;DHT22;52756;52.826;6.214;2022-08-11T06:12:32;21.30;62.50
54938;DHT22;52756;52.826;6.214;2022-08-11T06:15:07;21.90;61.20
54938;DHT22;52756;52.826;6.214;2022-08-11T06:17:42;22.50;59.70
54938;DHT22;52756;52.826;6.214;2022-08-11T06:20:10;23.00;58.90
54938;DHT22;52756;52.826;6.214;2022-08-11T06:22:38;23.50;57.80
54938;DHT22;52756;52.826;6.214;2022-08-11T06:25:06;24.00;56.80
54938;DHT22;52756;52.826;6.214;2022-08-11T06:27:35;24.40;55.90
54938;DHT22;52756;52.826;6.214;2022-08-11T06:30:05;24.90;54.90
54938;DHT22;52756;52.826;6.214;2022-08-11T06:32:43;25.30;54.30
54938;DHT22;52756;52.826;6.214;2022-08-11T06:46:35;27.20;49.90
54938;DHT22;52756;52.826;6.214;2022-08-11T06:49:08;27.50;49.00
54938;DHT22;52756;52.826;6.214;2022-08-11T06:51:59;27.70;48.00
54938;DHT22;52756;52.826;6.214;2022-08-11T06:54:29;27.90;48.20
54938;DHT22;52756;52.826;6.214;2022-08-11T06:56:57;28.10;47.70
54938;DHT22;52756;52.826;6.214;2022-08-11T06:59:43;28.20;46.80
54938;DHT22;52756;52.826;6.214;2022-08-11T07:02:51;28.40;46.80
54938;DHT22;52756;52.826;6.214;2022-08-11T07:11:39;29.10;45.40
54938;DHT22;52756;52.826;6.214;2022-08-11T07:14:30;29.20;44.40
54938;DHT22;52756;52.826;6.214;2022-08-11T07:17:20;29.20;43.70
54938;DHT22;52756;52.826;6.214;2022-08-11T07:19:56;29.00;43.80
54938;DHT22;52756;52.826;6.214;2022-08-11T07:22:54;28.80;43.70
54938;DHT22;52756;52.826;6.214;2022-08-11T07:25:42;28.60;43.70
54938;DHT22;52756;52.826;6.214;2022-08-11T07:28:33;28.60;43.80
54938;DHT22;52756;52.826;6.214;2022-08-11T07:31:39;28.60;43.60
54938;DHT22;52756;52.826;6.214;2022-08-11T07:34:27;28.60;44.20
54938;DHT22;52756;52.826;6.214;2022-08-11T07:36:56;28.70;43.80
54938;DHT22;52756;52.826;6.214;2022-08-11T07:39:32;28.80;43.60
54938;DHT22;52756;52.826;6.214;2022-08-11T07:41:59;28.90;43.80
54938;DHT22;52756;52.826;6.214;2022-08-11T07:44:29;29.10;43.60
54938;DHT22;52756;52.826;6.214;2022-08-11T07:46:55;29.20;43.00
54938;DHT22;52756;52.826;6.214;2022-08-11T07:49:43;29.40;43.60
54938;DHT22;52756;52.826;6.214;2022-08-11T07:52:32;29.60;43.30
54938;DHT22;52756;52.826;6.214;2022-08-11T07:55:13;29.70;43.20
54938;DHT22;52756;52.826;6.214;2022-08-11T07:57:42;29.90;42.90
54938;DHT22;52756;52.826;6.214;2022-08-11T08:00:27;30.00;42.90
54938;DHT22;52756;52.826;6.214;2022-08-11T08:03:11;30.20;42.90
54938;DHT22;52756;52.826;6.214;2022-08-11T08:05:56;30.30;42.50
54938;DHT22;52756;52.826;6.214;2022-08-11T08:08:41;30.30;42.10
54938;DHT22;52756;52.826;6.214;2022-08-11T08:11:26;30.40;42.30
54938;DHT22;52756;52.826;6.214;2022-08-11T08:14:11;30.50;42.00
54938;DHT22;52756;52.826;6.214;2022-08-11T08:16:56;30.60;41.70
54938;DHT22;52756;52.826;6.214;2022-08-11T08:19:46;30.70;41.50
54938;DHT22;52756;52.826;6.214;2022-08-11T08:22:16;30.80;41.50
54938;DHT22;52756;52.826;6.214;2022-08-11T08:24:43;30.90;41.10
54938;DHT22;52756;52.826;6.214;2022-08-11T08:27:09;31.10;41.10
54938;DHT22;52756;52.826;6.214;2022-08-11T08:29:37;31.20;41.20
54938;DHT22;52756;52.826;6.214;2022-08-11T08:32:22;31.30;40.60
54938;DHT22;52756;52.826;6.214;2022-08-11T08:34:53;31.40;40.40
54938;DHT22;52756;52.826;6.214;2022-08-11T08:37:22;31.50;39.40
54938;DHT22;52756;52.826;6.214;2022-08-11T08:39:48;31.40;39.00
54938;DHT22;52756;52.826;6.214;2022-08-11T08:42:23;31.40;39.40
54938;DHT22;52756;52.826;6.214;2022-08-11T08:45:10;31.40;39.00
54938;DHT22;52756;52.826;6.214;2022-08-11T08:47:40;31.40;39.00
54938;DHT22;52756;52.826;6.214;2022-08-11T08:50:12;31.40;39.30
54938;DHT22;52756;52.826;6.214;2022-08-11T08:52:44;31.60;39.60
54938;DHT22;52756;52.826;6.214;2022-08-11T08:55:17;31.80;38.50
54938;DHT22;52756;52.826;6.214;2022-08-11T08:57:46;31.90;38.10
54938;DHT22;52756;52.826;6.214;2022-08-11T09:00:16;31.90;38.80
54938;DHT22;52756;52.826;6.214;2022-08-11T09:02:43;32.10;38.80
54938;DHT22;52756;52.826;6.214;2022-08-11T09:05:10;32.10;38.20
54938;DHT22;52756;52.826;6.214;2022-08-11T09:07:36;32.20;38.00
54938;DHT22;52756;52.826;6.214;2022-08-11T09:10:04;32.20;37.90
54938;DHT22;52756;52.826;6.214;2022-08-11T09:12:31;32.30;38.10
54938;DHT22;52756;52.826;6.214;2022-08-11T09:14:59;32.30;37.40
54938;DHT22;52756;52.826;6.214;2022-08-11T09:17:27;32.30;36.20
54938;DHT22;52756;52.826;6.214;2022-08-11T09:19:58;32.30;36.10
54938;DHT22;52756;52.826;6.214;2022-08-11T09:22:35;32.20;37.00
54938;DHT22;52756;52.826;6.214;2022-08-11T09:25:24;32.20;37.50
54938;DHT22;52756;52.826;6.214;2022-08-11T09:28:16;32.30;37.00
54938;DHT22;52756;52.826;6.214;2022-08-11T09:30:44;32.40;36.80
54938;DHT22;52756;52.826;6.214;2022-08-11T09:33:15;32.50;36.30
54938;DHT22;52756;52.826;6.214;2022-08-11T09:35:41;32.70;36.30
54938;DHT22;52756;52.826;6.214;2022-08-11T09:38:13;32.70;36.40
54938;DHT22;52756;52.826;6.214;2022-08-11T09:40:58;32.80;35.80
54938;DHT22;52756;52.826;6.214;2022-08-11T09:43:27;32.80;34.00
54938;DHT22;52756;52.826;6.214;2022-08-11T09:46:12;32.60;33.40
54938;DHT22;52756;52.826;6.214;2022-08-11T09:48:44;32.50;33.90
54938;DHT22;52756;52.826;6.214;2022-08-11T09:51:12;32.60;34.40
54938;DHT22;52756;52.826;6.214;2022-08-11T09:53:40;32.60;34.60
54938;DHT22;52756;52.826;6.214;2022-08-11T09:56:11;32.60;34.40
54938;DHT22;52756;52.826;6.214;2022-08-11T09:58:56;32.70;34.10
54938;DHT22;52756;52.826;6.214;2022-08-11T10:01:30;32.70;33.90
54938;DHT22;52756;52.826;6.214;2022-08-11T10:04:12;32.80;34.00
54938;DHT22;52756;52.826;6.214;2022-08-11T10:06:40;32.80;34.30
54938;DHT22;52756;52.826;6.214;2022-08-11T10:10:08;32.80;34.20
54938;DHT22;52756;52.826;6.214;2022-08-11T10:12:22;32.90;34.00
54938;DHT22;52756;52.826;6.214;2022-08-11T10:14:55;32.90;33.50
54938;DHT22;52756;52.826;6.214;2022-08-11T10:17:45;32.90;34.10
54938;DHT22;52756;52.826;6.214;2022-08-11T10:20:34;32.90;33.80
54938;DHT22;52756;52.826;6.214;2022-08-11T10:23:02;32.90;33.10
54938;DHT22;52756;52.826;6.214;2022-08-11T10:25:47;32.80;33.30
54938;DHT22;52756;52.826;6.214;2022-08-11T10:28:34;32.80;33.50
54938;DHT22;52756;52.826;6.214;2022-08-11T10:31:02;32.80;33.30
54938;DHT22;52756;52.826;6.214;2022-08-11T10:33:47;32.90;33.30
54938;DHT22;52756;52.826;6.214;2022-08-11T10:36:35;32.90;32.50
54938;DHT22;52756;52.826;6.214;2022-08-11T10:39:18;32.90;33.40
54938;DHT22;52756;52.826;6.214;2022-08-11T10:41:46;32.90;32.40
54938;DHT22;52756;52.826;6.214;2022-08-11T10:44:38;32.70;32.00
54938;DHT22;52756;52.826;6.214;2022-08-11T10:47:04;32.70;32.40
54938;DHT22;52756;52.826;6.214;2022-08-11T10:49:51;32.70;32.50
54938;DHT22;52756;52.826;6.214;2022-08-11T10:52:47;32.70;32.30
54938;DHT22;52756;52.826;6.214;2022-08-11T10:55:36;32.70;32.50
54938;DHT22;52756;52.826;6.214;2022-08-11T10:58:22;32.60;32.80
54938;DHT22;52756;52.826;6.214;2022-08-11T11:01:07;32.60;32.50
54938;DHT22;52756;52.826;6.214;2022-08-11T11:03:35;32.50;32.70
54938;DHT22;52756;52.826;6.214;2022-08-11T11:08:46;32.50;32.00
54938;DHT22;52756;52.826;6.214;2022-08-11T11:11:20;32.40;31.80
54938;DHT22;52756;52.826;6.214;2022-08-11T11:13:49;32.40;31.80
54938;DHT22;52756;52.826;6.214;2022-08-11T11:16:38;32.40;31.40
54938;DHT22;52756;52.826;6.214;2022-08-11T11:19:14;32.30;31.80
54938;DHT22;52756;52.826;6.214;2022-08-11T11:21:45;32.30;33.00
54938;DHT22;52756;52.826;6.214;2022-08-11T11:27:08;32.40;31.90
54938;DHT22;52756;52.826;6.214;2022-08-11T11:32:48;32.30;31.70
54938;DHT22;52756;52.826;6.214;2022-08-11T11:35:59;32.20;31.50
54938;DHT22;52756;52.826;6.214;2022-08-11T11:38:29;32.20;32.10
54938;DHT22;52756;52.826;6.214;2022-08-11T11:40:55;32.10;32.00
54938;DHT22;52756;52.826;6.214;2022-08-11T11:43:41;32.10;32.60
54938;DHT22;52756;52.826;6.214;2022-08-11T11:46:07;32.20;32.40
54938;DHT22;52756;52.826;6.214;2022-08-11T11:48:35;32.10;32.20
54938;DHT22;52756;52.826;6.214;2022-08-11T11:51:02;32.10;32.40
54938;DHT22;52756;52.826;6.214;2022-08-11T11:53:28;32.10;31.80
54938;DHT22;52756;52.826;6.214;2022-08-11T11:55:54;32.10;31.70
54938;DHT22;52756;52.826;6.214;2022-08-11T11:58:21;32.10;31.80
54938;DHT22;52756;52.826;6.214;2022-08-11T12:01:06;32.10;32.20
54938;DHT22;52756;52.826;6.214;2022-08-11T12:03:43;32.10;32.90
54938;DHT22;52756;52.826;6.214;2022-08-11T12:06:10;32.10;31.70
54938;DHT22;52756;52.826;6.214;2022-08-11T12:08:39;32.00;32.80
54938;DHT22;52756;52.826;6.214;2022-08-11T12:11:09;32.00;32.50
54938;DHT22;52756;52.826;6.214;2022-08-11T12:13:56;32.00;33.20
54938;DHT22;52756;52.826;6.214;2022-08-11T12:16:23;32.10;33.20
54938;DHT22;52756;52.826;6.214;2022-08-11T12:18:56;32.20;32.80
54938;DHT22;52756;52.826;6.214;2022-08-11T12:21:23;32.20;32.40
54938;DHT22;52756;52.826;6.214;2022-08-11T12:23:49;32.20;32.30
54938;DHT22;52756;52.826;6.214;2022-08-11T12:26:35;32.20;31.40
54938;DHT22;52756;52.826;6.214;2022-08-11T12:29:22;32.00;32.00
54938;DHT22;52756;52.826;6.214;2022-08-11T12:31:55;32.00;32.30
54938;DHT22;52756;52.826;6.214;2022-08-11T12:34:25;32.00;32.50
54938;DHT22;52756;52.826;6.214;2022-08-11T12:36:58;32.00;32.10
54938;DHT22;52756;52.826;6.214;2022-08-11T12:39:27;32.00;31.70
54938;DHT22;52756;52.826;6.214;2022-08-11T12:42:16;32.00;32.20
54938;DHT22;52756;52.826;6.214;2022-08-11T12:45:01;31.90;32.00
54938;DHT22;52756;52.826;6.214;2022-08-11T12:47:50;31.90;32.10
54938;DHT22;52756;52.826;6.214;2022-08-11T12:50:35;31.90;32.10
54938;DHT22;52756;52.826;6.214;2022-08-11T12:53:26;31.90;32.40
54938;DHT22;52756;52.826;6.214;2022-08-11T12:56:00;32.00;32.60
54938;DHT22;52756;52.826;6.214;2022-08-11T12:58:48;32.00;32.70
54938;DHT22;52756;52.826;6.214;2022-08-11T13:01:16;32.10;32.70
54938;DHT22;52756;52.826;6.214;2022-08-11T13:04:01;32.20;32.70
54938;DHT22;52756;52.826;6.214;2022-08-11T13:06:45;32.30;32.40
54938;DHT22;52756;52.826;6.214;2022-08-11T13:09:11;32.30;32.60
54938;DHT22;52756;52.826;6.214;2022-08-11T13:11:39;32.40;32.30
54938;DHT22;52756;52.826;6.214;2022-08-11T13:14:28;32.50;31.90
54938;DHT22;52756;52.826;6.214;2022-08-11T13:16:59;32.30;31.80
54938;DHT22;52756;52.826;6.214;2022-08-11T13:19:44;32.30;32.10
54938;DHT22;52756;52.826;6.214;2022-08-11T13:22:11;32.30;32.20
54938;DHT22;52756;52.826;6.214;2022-08-11T13:24:38;32.40;32.20
54938;DHT22;52756;52.826;6.214;2022-08-11T13:27:05;32.40;32.10
54938;DHT22;52756;52.826;6.214;2022-08-11T13:29:31;32.50;32.20
54938;DHT22;52756;52.826;6.214;2022-08-11T13:31:57;32.50;32.20
54938;DHT22;52756;52.826;6.214;2022-08-11T13:34:26;32.50;32.40
54938;DHT22;52756;52.826;6.214;2022-08-11T13:36:54;32.50;32.40
54938;DHT22;52756;52.826;6.214;2022-08-11T13:39:30;32.50;32.20
54938;DHT22;52756;52.826;6.214;2022-08-11T13:41:58;32.70;33.00
54938;DHT22;52756;52.826;6.214;2022-08-11T13:44:31;32.70;32.80
54938;DHT22;52756;52.826;6.214;2022-08-11T13:47:02;32.70;32.70
54938;DHT22;52756;52.826;6.214;2022-08-11T13:49:35;32.70;32.20
54938;DHT22;52756;52.826;6.214;2022-08-11T13:52:02;32.70;31.90
54938;DHT22;52756;52.826;6.214;2022-08-11T13:54:34;32.70;32.10
54938;DHT22;52756;52.826;6.214;2022-08-11T13:57:05;32.70;32.30
54938;DHT22;52756;52.826;6.214;2022-08-11T13:59:31;32.70;32.70
54938;DHT22;52756;52.826;6.214;2022-08-11T14:02:07;32.70;32.30
54938;DHT22;52756;52.826;6.214;2022-08-11T14:04:41;32.80;32.00
54938;DHT22;52756;52.826;6.214;2022-08-11T14:07:09;32.80;32.00
54938;DHT22;52756;52.826;6.214;2022-08-11T14:09:42;32.80;32.10
54938;DHT22;52756;52.826;6.214;2022-08-11T14:12:12;32.80;32.10
54938;DHT22;52756;52.826;6.214;2022-08-11T14:15:06;32.80;31.50
54938;DHT22;52756;52.826;6.214;2022-08-11T14:17:35;32.70;31.80
54938;DHT22;52756;52.826;6.214;2022-08-11T14:20:07;32.70;32.00
54938;DHT22;52756;52.826;6.214;2022-08-11T14:22:36;32.70;31.40
54938;DHT22;52756;52.826;6.214;2022-08-11T14:25:03;32.70;31.30
54938;DHT22;52756;52.826;6.214;2022-08-11T14:27:30;32.60;31.70
54938;DHT22;52756;52.826;6.214;2022-08-11T14:29:57;32.60;31.70
54938;DHT22;52756;52.826;6.214;2022-08-11T14:32:23;32.60;31.90
54938;DHT22;52756;52.826;6.214;2022-08-11T14:34:50;32.60;31.30
54938;DHT22;52756;52.826;6.214;2022-08-11T14:37:21;32.60;31.50
54938;DHT22;52756;52.826;6.214;2022-08-11T14:39:50;32.60;32.30
54938;DHT22;52756;52.826;6.214;2022-08-11T14:42:17;32.60;32.20
54938;DHT22;52756;52.826;6.214;2022-08-11T14:45:13;32.60;32.10
54938;DHT22;52756;52.826;6.214;2022-08-11T14:48:00;32.60;32.10
54938;DHT22;52756;52.826;6.214;2022-08-11T14:50:36;32.60;31.80
54938;DHT22;52756;52.826;6.214;2022-08-11T14:53:08;32.70;32.20
54938;DHT22;52756;52.826;6.214;2022-08-11T14:55:37;32.70;31.60
54938;DHT22;52756;52.826;6.214;2022-08-11T14:58:25;32.70;31.70
54938;DHT22;52756;52.826;6.214;2022-08-11T15:00:57;32.70;32.20
54938;DHT22;52756;52.826;6.214;2022-08-11T15:03:24;32.60;31.90
54938;DHT22;52756;52.826;6.214;2022-08-11T15:05:53;32.60;31.50
54938;DHT22;52756;52.826;6.214;2022-08-11T15:08:22;32.50;31.30
54938;DHT22;52756;52.826;6.214;2022-08-11T15:11:09;32.40;31.50
54938;DHT22;52756;52.826;6.214;2022-08-11T15:13:58;32.40;31.70
54938;DHT22;52756;52.826;6.214;2022-08-11T15:16:26;32.30;31.60
54938;DHT22;52756;52.826;6.214;2022-08-11T15:19:12;32.30;31.80
54938;DHT22;52756;52.826;6.214;2022-08-11T15:21:38;32.30;31.90
54938;DHT22;52756;52.826;6.214;2022-08-11T15:24:22;32.30;32.10
54938;DHT22;52756;52.826;6.214;2022-08-11T15:26:49;32.30;32.40
54938;DHT22;52756;52.826;6.214;2022-08-11T15:29:37;32.30;31.80
54938;DHT22;52756;52.826;6.214;2022-08-11T15:32:23;32.20;31.90
54938;DHT22;52756;52.826;6.214;2022-08-11T15:35:08;32.20;32.00
54938;DHT22;52756;52.826;6.214;2022-08-11T15:37:57;32.10;31.60
54938;DHT22;52756;52.826;6.214;2022-08-11T15:40:28;32.10;32.00
54938;DHT22;52756;52.826;6.214;2022-08-11T15:43:20;32.00;31.90
54938;DHT22;52756;52.826;6.214;2022-08-11T15:48:58;32.00;32.00
54938;DHT22;52756;52.826;6.214;2022-08-11T15:53:57;32.00;32.60
54938;DHT22;52756;52.826;6.214;2022-08-11T15:56:28;32.00;32.40
54938;DHT22;52756;52.826;6.214;2022-08-11T15:58:56;32.00;32.30
54938;DHT22;52756;52.826;6.214;2022-08-11T16:01:43;32.00;32.60
54938;DHT22;52756;52.826;6.214;2022-08-11T16:04:30;32.00;32.50
54938;DHT22;52756;52.826;6.214;2022-08-11T16:07:20;32.00;32.20
54938;DHT22;52756;52.826;6.214;2022-08-11T16:10:11;32.00;32.20
54938;DHT22;52756;52.826;6.214;2022-08-11T16:12:42;31.80;32.70
54938;DHT22;52756;52.826;6.214;2022-08-11T16:15:39;31.80;32.60
54938;DHT22;52756;52.826;6.214;2022-08-11T16:18:28;31.80;33.00
54938;DHT22;52756;52.826;6.214;2022-08-11T16:21:09;31.90;32.90
54938;DHT22;52756;52.826;6.214;2022-08-11T16:23:36;31.90;32.60
54938;DHT22;52756;52.826;6.214;2022-08-11T16:26:04;31.90;32.40
54938;DHT22;52756;52.826;6.214;2022-08-11T16:28:31;31.90;32.60
54938;DHT22;52756;52.826;6.214;2022-08-11T16:30:58;31.90;32.80
54938;DHT22;52756;52.826;6.214;2022-08-11T16:33:25;31.90;33.00
54938;DHT22;52756;52.826;6.214;2022-08-11T16:35:52;31.80;33.10
54938;DHT22;52756;52.826;6.214;2022-08-11T16:38:38;31.70;33.30
54938;DHT22;52756;52.826;6.214;2022-08-11T16:41:11;31.80;33.30
54938;DHT22;52756;52.826;6.214;2022-08-11T16:43:44;31.80;33.20
54938;DHT22;52756;52.826;6.214;2022-08-11T16:46:30;31.60;32.90
54938;DHT22;52756;52.826;6.214;2022-08-11T16:49:29;31.60;33.10
54938;DHT22;52756;52.826;6.214;2022-08-11T16:51:56;31.60;33.30
54938;DHT22;52756;52.826;6.214;2022-08-11T16:54:22;31.50;33.50
54938;DHT22;52756;52.826;6.214;2022-08-11T16:56:49;31.50;33.80
54938;DHT22;52756;52.826;6.214;2022-08-11T16:59:19;31.50;34.10
54938;DHT22;52756;52.826;6.214;2022-08-11T17:01:56;31.40;34.20
54938;DHT22;52756;52.826;6.214;2022-08-11T17:04:42;31.40;34.40
54938;DHT22;52756;52.826;6.214;2022-08-11T17:07:29;31.40;34.60
54938;DHT22;52756;52.826;6.214;2022-08-11T17:10:36;31.30;34.40
54938;DHT22;52756;52.826;6.214;2022-08-11T17:13:49;31.30;34.50
54938;DHT22;52756;52.826;6.214;2022-08-11T17:16:25;31.20;34.90
54938;DHT22;52756;52.826;6.214;2022-08-11T17:19:14;31.20;34.80
54938;DHT22;52756;52.826;6.214;2022-08-11T17:21:44;31.10;35.00
54938;DHT22;52756;52.826;6.214;2022-08-11T17:24:32;31.10;35.10
54938;DHT22;52756;52.826;6.214;2022-08-11T17:26:59;31.10;35.00
54938;DHT22;52756;52.826;6.214;2022-08-11T17:31:55;30.90;35.20
54938;DHT22;52756;52.826;6.214;2022-08-11T17:34:42;30.90;35.60
54938;DHT22;52756;52.826;6.214;2022-08-11T17:37:28;30.80;35.70
54938;DHT22;52756;52.826;6.214;2022-08-11T17:39:56;30.80;35.70
54938;DHT22;52756;52.826;6.214;2022-08-11T17:42:27;30.80;35.90
54938;DHT22;52756;52.826;6.214;2022-08-11T17:45:13;30.80;36.10
54938;DHT22;52756;52.826;6.214;2022-08-11T17:48:00;30.80;36.20
54938;DHT22;52756;52.826;6.214;2022-08-11T17:50:46;30.80;35.90
54938;DHT22;52756;52.826;6.214;2022-08-11T17:53:13;30.80;36.30
54938;DHT22;52756;52.826;6.214;2022-08-11T17:56:00;30.80;36.10
54938;DHT22;52756;52.826;6.214;2022-08-11T17:58:45;30.70;36.10
54938;DHT22;52756;52.826;6.214;2022-08-11T18:01:32;30.60;36.10
54938;DHT22;52756;52.826;6.214;2022-08-11T18:04:03;30.60;36.60
54938;DHT22;52756;52.826;6.214;2022-08-11T18:06:30;30.60;36.60
54938;DHT22;52756;52.826;6.214;2022-08-11T18:08:58;30.50;36.70
54938;DHT22;52756;52.826;6.214;2022-08-11T18:11:45;30.50;36.90
54938;DHT22;52756;52.826;6.214;2022-08-11T18:14:32;30.40;36.60
54938;DHT22;52756;52.826;6.214;2022-08-11T18:17:17;30.30;36.70
54938;DHT22;52756;52.826;6.214;2022-08-11T18:20:01;30.20;36.70
54938;DHT22;52756;52.826;6.214;2022-08-11T18:22:46;30.20;37.00
54938;DHT22;52756;52.826;6.214;2022-08-11T18:25:38;30.10;37.20
54938;DHT22;52756;52.826;6.214;2022-08-11T18:28:28;30.10;37.60
54938;DHT22;52756;52.826;6.214;2022-08-11T18:31:14;30.10;37.80
54938;DHT22;52756;52.826;6.214;2022-08-11T18:34:03;30.10;37.90
54938;DHT22;52756;52.826;6.214;2022-08-11T18:36:51;30.10;38.00
54938;DHT22;52756;52.826;6.214;2022-08-11T18:39:44;30.00;38.10
54938;DHT22;52756;52.826;6.214;2022-08-11T18:42:30;30.00;38.20
54938;DHT22;52756;52.826;6.214;2022-08-11T18:45:16;30.00;38.20
54938;DHT22;52756;52.826;6.214;2022-08-11T18:48:05;30.00;38.20
54938;DHT22;52756;52.826;6.214;2022-08-11T18:50:52;30.00;38.30
54938;DHT22;52756;52.826;6.214;2022-08-11T18:53:40;29.90;38.30
54938;DHT22;52756;52.826;6.214;2022-08-11T18:56:26;29.90;38.40
54938;DHT22;52756;52.826;6.214;2022-08-11T18:59:14;29.90;38.50
54938;DHT22;52756;52.826;6.214;2022-08-11T19:02:01;29.90;38.50
54938;DHT22;52756;52.826;6.214;2022-08-11T19:04:47;29.80;38.50
54938;DHT22;52756;52.826;6.214;2022-08-11T19:07:33;29.80;38.70
54938;DHT22;52756;52.826;6.214;2022-08-11T19:10:19;29.80;38.80
54938;DHT22;52756;52.826;6.214;2022-08-11T19:13:07;29.70;38.80
54938;DHT22;52756;52.826;6.214;2022-08-11T19:15:55;29.70;39.00
54938;DHT22;52756;52.826;6.214;2022-08-11T19:18:42;29.60;39.10
54938;DHT22;52756;52.826;6.214;2022-08-11T19:21:29;29.50;39.10
54938;DHT22;52756;52.826;6.214;2022-08-11T19:24:14;29.50;39.20
54938;DHT22;52756;52.826;6.214;2022-08-11T19:27:00;29.40;39.20
54938;DHT22;52756;52.826;6.214;2022-08-11T19:29:46;29.40;39.40
54938;DHT22;52756;52.826;6.214;2022-08-11T19:32:31;29.30;39.50
54938;DHT22;52756;52.826;6.214;2022-08-11T19:35:16;29.20;39.50
54938;DHT22;52756;52.826;6.214;2022-08-11T19:38:01;29.10;39.50
54938;DHT22;52756;52.826;6.214;2022-08-11T19:40:47;29.00;39.60
54938;DHT22;52756;52.826;6.214;2022-08-11T19:43:33;28.90;39.80
54938;DHT22;52756;52.826;6.214;2022-08-11T19:46:20;28.90;39.90
54938;DHT22;52756;52.826;6.214;2022-08-11T19:49:05;28.80;40.00
54938;DHT22;52756;52.826;6.214;2022-08-11T19:51:50;28.70;40.00
54938;DHT22;52756;52.826;6.214;2022-08-11T19:54:35;28.70;40.10
54938;DHT22;52756;52.826;6.214;2022-08-11T19:57:22;28.50;40.50
54938;DHT22;52756;52.826;6.214;2022-08-11T20:00:18;28.40;40.30
54938;DHT22;52756;52.826;6.214;2022-08-11T20:03:06;28.30;40.40
54938;DHT22;52756;52.826;6.214;2022-08-11T20:05:52;28.20;40.60
54938;DHT22;52756;52.826;6.214;2022-08-11T20:08:41;28.10;40.70
54938;DHT22;52756;52.826;6.214;2022-08-11T20:11:29;28.00;40.80